sensor_id;sensor_type;location;lat;lon;timestamp;temperature;humidity
41324;DHT22;27073;51.128;4.220;2022-12-18T00:00:47;-0.50;92.00
41324;DHT22;27073;51.128;4.220;2022-12-18T00:03:14;-0.50;91.60
41324;DHT22;27073;51.128;4.220;2022-12-18T00:05:50;-0.60;91.80
41324;DHT22;27073;51.128;4.220;2022-12-18T00:08:16;-0.80;91.80
41324;DHT22;27073;51.128;4.220;2022-12-18T00:10:43;-0.70;92.20
41324;DHT22;27073;51.128;4.220;2022-12-18T00:13:09;-0.70;92.30
41324;DHT22;27073;51.128;4.220;2022-12-18T00:15:36;-0.70;92.00
41324;DHT22;27073;51.128;4.220;2022-12-18T00:18:03;-0.70;92.20
41324;DHT22;27073;51.128;4.220;2022-12-18T00:20:29;-0.70;92.20
41324;DHT22;27073;51.128;4.220;2022-12-18T00:22:55;-0.70;91.60
41324;DHT22;27073;51.128;4.220;2022-12-18T00:25:21;-0.70;91.50
41324;DHT22;27073;51.128;4.220;2022-12-18T00:27:47;-0.70;91.60
41324;DHT22;27073;51.128;4.220;2022-12-18T00:30:13;-0.90;91.60
41324;DHT22;27073;51.128;4.220;2022-12-18T00:32:39;-0.90;92.00
41324;DHT22;27073;51.128;4.220;2022-12-18T00:35:06;-1.20;92.30
41324;DHT22;27073;51.128;4.220;2022-12-18T00:37:34;-1.10;93.20
41324;DHT22;27073;51.128;4.220;2022-12-18T00:39:59;-0.90;93.30
41324;DHT22;27073;51.128;4.220;2022-12-18T00:42:27;-0.90;92.40
41324;DHT22;27073;51.128;4.220;2022-12-18T00:45:11;-0.80;91.50
41324;DHT22;27073;51.128;4.220;2022-12-18T00:47:36;-0.80;90.10
41324;DHT22;27073;51.128;4.220;2022-12-18T00:50:02;-0.90;90.70
41324;DHT22;27073;51.128;4.220;2022-12-18T00:52:28;-0.90;91.00
41324;DHT22;27073;51.128;4.220;2022-12-18T00:54:54;-1.00;90.90
41324;DHT22;27073;51.128;4.220;2022-12-18T00:57:19;-1.00;90.70
41324;DHT22;27073;51.128;4.220;2022-12-18T00:59:45;-1.00;91.00
41324;DHT22;27073;51.128;4.220;2022-12-18T01:02:11;-1.00;91.30
41324;DHT22;27073;51.128;4.220;2022-12-18T01:04:36;-1.00;90.30
41324;DHT22;27073;51.128;4.220;2022-12-18T01:07:02;-1.00;90.40
41324;DHT22;27073;51.128;4.220;2022-12-18T01:09:28;-1.00;89.40
41324;DHT22;27073;51.128;4.220;2022-12-18T01:11:54;-1.10;90.60
41324;DHT22;27073;51.128;4.220;2022-12-18T01:14:19;-1.10;90.90
41324;DHT22;27073;51.128;4.220;2022-12-18T01:16:45;-1.10;91.10
41324;DHT22;27073;51.128;4.220;2022-12-18T01:19:11;-1.20;91.00
41324;DHT22;27073;51.128;4.220;2022-12-18T01:21:37;-1.20;91.40
41324;DHT22;27073;51.128;4.220;2022-12-18T01:24:03;-1.20;91.60
41324;DHT22;27073;51.128;4.220;2022-12-18T01:26:29;-1.40;91.60
41324;DHT22;27073;51.128;4.220;2022-12-18T01:28:57;-1.10;92.10
41324;DHT22;27073;51.128;4.220;2022-12-18T01:31:25;-1.00;90.80
41324;DHT22;27073;51.128;4.220;2022-12-18T01:33:52;-1.10;87.30
41324;DHT22;27073;51.128;4.220;2022-12-18T01:36:38;-1.00;87.60
41324;DHT22;27073;51.128;4.220;2022-12-18T01:39:11;-1.10;87.70
41324;DHT22;27073;51.128;4.220;2022-12-18T01:41:41;-1.20;88.60
41324;DHT22;27073;51.128;4.220;2022-12-18T01:49:55;-1.20;90.50
41324;DHT22;27073;51.128;4.220;2022-12-18T01:52:21;-0.90;88.50
41324;DHT22;27073;51.128;4.220;2022-12-18T01:54:49;-0.80;82.50
41324;DHT22;27073;51.128;4.220;2022-12-18T01:57:15;-0.80;80.30
41324;DHT22;27073;51.128;4.220;2022-12-18T01:59:45;-0.90;81.50
41324;DHT22;27073;51.128;4.220;2022-12-18T02:02:14;-1.00;83.20
41324;DHT22;27073;51.128;4.220;2022-12-18T02:04:40;-1.10;83.00
41324;DHT22;27073;51.128;4.220;2022-12-18T02:09:47;-1.20;85.60
41324;DHT22;27073;51.128;4.220;2022-12-18T02:12:19;-1.30;86.00
41324;DHT22;27073;51.128;4.220;2022-12-18T02:15:02;-1.30;88.50
41324;DHT22;27073;51.128;4.220;2022-12-18T02:17:38;-1.20;87.80
41324;DHT22;27073;51.128;4.220;2022-12-18T02:20:22;-1.20;85.00
41324;DHT22;27073;51.128;4.220;2022-12-18T02:28:36;-1.30;83.20
41324;DHT22;27073;51.128;4.220;2022-12-18T02:31:07;-1.30;84.30
41324;DHT22;27073;51.128;4.220;2022-12-18T02:33:35;-1.40;85.20
41324;DHT22;27073;51.128;4.220;2022-12-18T02:36:02;-1.30;85.40
41324;DHT22;27073;51.128;4.220;2022-12-18T02:38:30;-1.10;82.70
41324;DHT22;27073;51.128;4.220;2022-12-18T02:41:02;-1.20;80.20
41324;DHT22;27073;51.128;4.220;2022-12-18T02:43:29;-1.20;80.70
41324;DHT22;27073;51.128;4.220;2022-12-18T02:45:59;-1.20;81.90
41324;DHT22;27073;51.128;4.220;2022-12-18T02:48:31;-1.30;84.00
41324;DHT22;27073;51.128;4.220;2022-12-18T02:51:45;-1.30;83.50
41324;DHT22;27073;51.128;4.220;2022-12-18T02:54:09;-1.30;83.30
41324;DHT22;27073;51.128;4.220;2022-12-18T02:56:49;-1.40;83.20
41324;DHT22;27073;51.128;4.220;2022-12-18T02:59:21;-1.40;83.50
41324;DHT22;27073;51.128;4.220;2022-12-18T03:05:03;-1.30;84.30
41324;DHT22;27073;51.128;4.220;2022-12-18T03:07:39;-1.30;83.60
41324;DHT22;27073;51.128;4.220;2022-12-18T03:10:13;-1.30;82.80
41324;DHT22;27073;51.128;4.220;2022-12-18T03:12:45;-1.50;81.70
41324;DHT22;27073;51.128;4.220;2022-12-18T03:15:21;-1.50;83.90
41324;DHT22;27073;51.128;4.220;2022-12-18T03:18:01;-1.60;86.40
41324;DHT22;27073;51.128;4.220;2022-12-18T03:20:32;-1.60;87.40
41324;DHT22;27073;51.128;4.220;2022-12-18T03:23:17;-1.60;86.80
41324;DHT22;27073;51.128;4.220;2022-12-18T03:25:48;-1.50;85.60
41324;DHT22;27073;51.128;4.220;2022-12-18T03:28:20;-1.50;86.20
41324;DHT22;27073;51.128;4.220;2022-12-18T03:30:59;-1.50;85.80
41324;DHT22;27073;51.128;4.220;2022-12-18T03:33:28;-1.40;85.90
41324;DHT22;27073;51.128;4.220;2022-12-18T03:35:56;-1.40;82.40
41324;DHT22;27073;51.128;4.220;2022-12-18T03:38:22;-1.50;80.90
41324;DHT22;27073;51.128;4.220;2022-12-18T03:41:01;-1.50;82.40
41324;DHT22;27073;51.128;4.220;2022-12-18T03:43:42;-1.50;81.40
41324;DHT22;27073;51.128;4.220;2022-12-18T03:46:21;-1.60;81.50
41324;DHT22;27073;51.128;4.220;2022-12-18T03:48:52;-1.60;82.90
41324;DHT22;27073;51.128;4.220;2022-12-18T03:51:54;-1.50;83.80
41324;DHT22;27073;51.128;4.220;2022-12-18T03:54:23;-1.50;82.90
41324;DHT22;27073;51.128;4.220;2022-12-18T03:57:06;-1.60;80.80
41324;DHT22;27073;51.128;4.220;2022-12-18T03:59:34;-1.60;81.70
41324;DHT22;27073;51.128;4.220;2022-12-18T04:02:01;-1.60;80.70
41324;DHT22;27073;51.128;4.220;2022-12-18T04:04:30;-1.60;81.90
41324;DHT22;27073;51.128;4.220;2022-12-18T04:06:59;-1.50;80.30
41324;DHT22;27073;51.128;4.220;2022-12-18T04:09:26;-1.50;78.00
41324;DHT22;27073;51.128;4.220;2022-12-18T04:11:52;-1.40;75.60
41324;DHT22;27073;51.128;4.220;2022-12-18T04:14:19;-1.30;69.90
41324;DHT22;27073;51.128;4.220;2022-12-18T04:16:48;-1.20;67.00
41324;DHT22;27073;51.128;4.220;2022-12-18T04:19:17;-1.20;66.70
41324;DHT22;27073;51.128;4.220;2022-12-18T04:21:44;-1.20;63.70
41324;DHT22;27073;51.128;4.220;2022-12-18T04:24:11;-1.30;62.80
41324;DHT22;27073;51.128;4.220;2022-12-18T04:26:41;-1.30;66.10
41324;DHT22;27073;51.128;4.220;2022-12-18T04:29:15;-1.30;66.60
41324;DHT22;27073;51.128;4.220;2022-12-18T04:31:41;-1.30;64.40
41324;DHT22;27073;51.128;4.220;2022-12-18T04:34:08;-1.20;62.40
41324;DHT22;27073;51.128;4.220;2022-12-18T04:36:39;-1.20;60.10
41324;DHT22;27073;51.128;4.220;2022-12-18T04:39:06;-1.20;60.60
41324;DHT22;27073;51.128;4.220;2022-12-18T04:41:32;-1.10;62.00
41324;DHT22;27073;51.128;4.220;2022-12-18T04:43:58;-1.10;58.40
41324;DHT22;27073;51.128;4.220;2022-12-18T04:46:24;-1.00;53.30
41324;DHT22;27073;51.128;4.220;2022-12-18T04:48:50;-1.10;54.70
41324;DHT22;27073;51.128;4.220;2022-12-18T04:51:15;-1.30;59.60
41324;DHT22;27073;51.128;4.220;2022-12-18T04:53:41;-1.50;67.60
41324;DHT22;27073;51.128;4.220;2022-12-18T04:56:09;-1.50;70.70
41324;DHT22;27073;51.128;4.220;2022-12-18T04:58:36;-1.30;68.30
41324;DHT22;27073;51.128;4.220;2022-12-18T05:01:03;-1.30;64.90
41324;DHT22;27073;51.128;4.220;2022-12-18T05:03:29;-1.30;63.10
41324;DHT22;27073;51.128;4.220;2022-12-18T05:05:55;-1.40;61.60
41324;DHT22;27073;51.128;4.220;2022-12-18T05:08:21;-1.40;63.80
41324;DHT22;27073;51.128;4.220;2022-12-18T05:10:47;-1.60;66.40
41324;DHT22;27073;51.128;4.220;2022-12-18T05:13:13;-1.60;70.50
41324;DHT22;27073;51.128;4.220;2022-12-18T05:15:38;-1.70;73.70
41324;DHT22;27073;51.128;4.220;2022-12-18T05:18:04;-1.70;72.70
41324;DHT22;27073;51.128;4.220;2022-12-18T05:20:30;-1.80;73.30
41324;DHT22;27073;51.128;4.220;2022-12-18T05:22:56;-1.80;73.60
41324;DHT22;27073;51.128;4.220;2022-12-18T05:25:23;-1.70;72.20
41324;DHT22;27073;51.128;4.220;2022-12-18T05:27:49;-1.80;74.50
41324;DHT22;27073;51.128;4.220;2022-12-18T05:30:15;-1.70;76.60
41324;DHT22;27073;51.128;4.220;2022-12-18T05:32:42;-1.70;74.10
41324;DHT22;27073;51.128;4.220;2022-12-18T05:35:09;-1.70;73.30
41324;DHT22;27073;51.128;4.220;2022-12-18T05:37:35;-1.80;72.10
41324;DHT22;27073;51.128;4.220;2022-12-18T05:40:02;-1.70;73.30
41324;DHT22;27073;51.128;4.220;2022-12-18T05:42:28;-1.60;71.10
41324;DHT22;27073;51.128;4.220;2022-12-18T05:44:53;-1.50;69.40
41324;DHT22;27073;51.128;4.220;2022-12-18T05:47:19;-1.40;66.50
41324;DHT22;27073;51.128;4.220;2022-12-18T05:49:45;-1.40;64.10
41324;DHT22;27073;51.128;4.220;2022-12-18T05:52:10;-1.40;61.90
41324;DHT22;27073;51.128;4.220;2022-12-18T05:54:36;-1.50;64.10
41324;DHT22;27073;51.128;4.220;2022-12-18T05:57:02;-1.60;67.00
41324;DHT22;27073;51.128;4.220;2022-12-18T05:59:27;-1.50;64.10
41324;DHT22;27073;51.128;4.220;2022-12-18T06:01:53;-1.40;63.70
41324;DHT22;27073;51.128;4.220;2022-12-18T06:04:19;-1.40;62.70
41324;DHT22;27073;51.128;4.220;2022-12-18T06:06:45;-1.40;59.10
41324;DHT22;27073;51.128;4.220;2022-12-18T06:09:10;-1.40;60.40
41324;DHT22;27073;51.128;4.220;2022-12-18T06:11:37;-1.40;59.40
41324;DHT22;27073;51.128;4.220;2022-12-18T06:14:05;-1.40;61.20
41324;DHT22;27073;51.128;4.220;2022-12-18T06:16:31;-1.40;60.90
41324;DHT22;27073;51.128;4.220;2022-12-18T06:19:02;-1.40;62.60
41324;DHT22;27073;51.128;4.220;2022-12-18T06:21:28;-1.40;62.40
41324;DHT22;27073;51.128;4.220;2022-12-18T06:23:54;-1.40;64.30
41324;DHT22;27073;51.128;4.220;2022-12-18T06:26:20;-1.40;65.80
41324;DHT22;27073;51.128;4.220;2022-12-18T06:28:46;-1.50;64.40
41324;DHT22;27073;51.128;4.220;2022-12-18T06:31:12;-1.40;65.90
41324;DHT22;27073;51.128;4.220;2022-12-18T06:33:38;-1.40;64.40
41324;DHT22;27073;51.128;4.220;2022-12-18T06:36:07;-1.30;62.40
41324;DHT22;27073;51.128;4.220;2022-12-18T06:38:34;-1.30;60.30
41324;DHT22;27073;51.128;4.220;2022-12-18T06:41:00;-1.30;58.40
41324;DHT22;27073;51.128;4.220;2022-12-18T06:43:26;-1.30;57.70
41324;DHT22;27073;51.128;4.220;2022-12-18T06:45:58;-1.50;59.80
41324;DHT22;27073;51.128;4.220;2022-12-18T06:48:24;-1.60;64.90
41324;DHT22;27073;51.128;4.220;2022-12-18T06:50:50;-1.60;67.40
41324;DHT22;27073;51.128;4.220;2022-12-18T06:53:15;-1.70;68.50
41324;DHT22;27073;51.128;4.220;2022-12-18T06:55:41;-1.80;71.00
41324;DHT22;27073;51.128;4.220;2022-12-18T06:58:06;-1.90;72.90
41324;DHT22;27073;51.128;4.220;2022-12-18T07:00:32;-1.90;76.00
41324;DHT22;27073;51.128;4.220;2022-12-18T07:02:58;-2.10;75.80
41324;DHT22;27073;51.128;4.220;2022-12-18T07:05:23;-2.00;76.40
41324;DHT22;27073;51.128;4.220;2022-12-18T07:07:49;-2.00;77.20
41324;DHT22;27073;51.128;4.220;2022-12-18T07:10:15;-2.10;76.50
41324;DHT22;27073;51.128;4.220;2022-12-18T07:12:40;-2.10;79.00
41324;DHT22;27073;51.128;4.220;2022-12-18T07:15:07;-2.10;78.00
41324;DHT22;27073;51.128;4.220;2022-12-18T07:17:32;-2.10;77.10
41324;DHT22;27073;51.128;4.220;2022-12-18T07:19:58;-2.00;77.60
41324;DHT22;27073;51.128;4.220;2022-12-18T07:22:25;-2.10;79.50
41324;DHT22;27073;51.128;4.220;2022-12-18T07:24:51;-2.00;80.90
41324;DHT22;27073;51.128;4.220;2022-12-18T07:27:17;-1.90;80.00
41324;DHT22;27073;51.128;4.220;2022-12-18T07:29:42;-1.90;78.90
41324;DHT22;27073;51.128;4.220;2022-12-18T07:32:08;-1.90;77.20
41324;DHT22;27073;51.128;4.220;2022-12-18T07:34:34;-1.90;78.10
41324;DHT22;27073;51.128;4.220;2022-12-18T07:37:00;-2.00;78.30
41324;DHT22;27073;51.128;4.220;2022-12-18T07:39:26;-2.10;79.30
41324;DHT22;27073;51.128;4.220;2022-12-18T07:41:51;-2.20;81.30
41324;DHT22;27073;51.128;4.220;2022-12-18T07:44:47;-2.10;82.40
41324;DHT22;27073;51.128;4.220;2022-12-18T07:47:13;-2.00;82.90
41324;DHT22;27073;51.128;4.220;2022-12-18T07:49:38;-2.00;81.70
41324;DHT22;27073;51.128;4.220;2022-12-18T07:52:04;-2.10;81.90
41324;DHT22;27073;51.128;4.220;2022-12-18T07:54:30;-2.10;82.30
41324;DHT22;27073;51.128;4.220;2022-12-18T07:56:55;-2.10;81.40
41324;DHT22;27073;51.128;4.220;2022-12-18T07:59:21;-2.10;81.00
41324;DHT22;27073;51.128;4.220;2022-12-18T08:01:47;-2.10;81.70
41324;DHT22;27073;51.128;4.220;2022-12-18T08:04:12;-2.10;82.30
41324;DHT22;27073;51.128;4.220;2022-12-18T08:06:38;-2.10;82.30
41324;DHT22;27073;51.128;4.220;2022-12-18T08:09:04;-2.00;82.70
41324;DHT22;27073;51.128;4.220;2022-12-18T08:11:29;-1.80;80.60
41324;DHT22;27073;51.128;4.220;2022-12-18T08:13:55;-1.70;76.20
41324;DHT22;27073;51.128;4.220;2022-12-18T08:16:22;-1.70;75.10
41324;DHT22;27073;51.128;4.220;2022-12-18T08:18:48;-1.80;72.10
41324;DHT22;27073;51.128;4.220;2022-12-18T08:21:19;-1.90;71.80
41324;DHT22;27073;51.128;4.220;2022-12-18T08:23:46;-2.00;74.30
41324;DHT22;27073;51.128;4.220;2022-12-18T08:26:12;-1.90;77.80
41324;DHT22;27073;51.128;4.220;2022-12-18T08:28:39;-1.70;76.70
41324;DHT22;27073;51.128;4.220;2022-12-18T08:31:05;-1.60;73.60
41324;DHT22;27073;51.128;4.220;2022-12-18T08:33:31;-1.60;73.30
41324;DHT22;27073;51.128;4.220;2022-12-18T08:35:58;-1.60;73.40
41324;DHT22;27073;51.128;4.220;2022-12-18T08:38:24;-1.60;72.60
41324;DHT22;27073;51.128;4.220;2022-12-18T08:41:00;-1.60;75.90
41324;DHT22;27073;51.128;4.220;2022-12-18T08:43:26;-1.60;77.50
41324;DHT22;27073;51.128;4.220;2022-12-18T08:46:11;-1.50;74.30
41324;DHT22;27073;51.128;4.220;2022-12-18T08:48:36;-1.50;74.50
41324;DHT22;27073;51.128;4.220;2022-12-18T08:51:02;-1.40;74.50
41324;DHT22;27073;51.128;4.220;2022-12-18T08:53:28;-1.40;76.50
41324;DHT22;27073;51.128;4.220;2022-12-18T08:55:53;-1.40;75.60
41324;DHT22;27073;51.128;4.220;2022-12-18T08:58:19;-1.40;77.20
41324;DHT22;27073;51.128;4.220;2022-12-18T09:00:45;-1.30;76.20
41324;DHT22;27073;51.128;4.220;2022-12-18T09:03:17;-1.10;74.00
41324;DHT22;27073;51.128;4.220;2022-12-18T09:05:43;-1.00;71.50
41324;DHT22;27073;51.128;4.220;2022-12-18T09:08:10;-1.00;73.40
41324;DHT22;27073;51.128;4.220;2022-12-18T09:10:47;-1.00;73.60
41324;DHT22;27073;51.128;4.220;2022-12-18T09:13:13;-1.00;74.60
41324;DHT22;27073;51.128;4.220;2022-12-18T09:15:58;-1.00;75.40
41324;DHT22;27073;51.128;4.220;2022-12-18T09:18:24;-1.10;73.70
41324;DHT22;27073;51.128;4.220;2022-12-18T09:20:50;-0.90;74.50
41324;DHT22;27073;51.128;4.220;2022-12-18T09:23:18;-0.80;73.50
41324;DHT22;27073;51.128;4.220;2022-12-18T09:25:44;-0.60;71.80
41324;DHT22;27073;51.128;4.220;2022-12-18T09:28:15;-0.60;67.10
41324;DHT22;27073;51.128;4.220;2022-12-18T09:30:43;-0.50;68.00
41324;DHT22;27073;51.128;4.220;2022-12-18T09:33:09;-0.40;65.80
41324;DHT22;27073;51.128;4.220;2022-12-18T09:35:39;-0.20;61.20
41324;DHT22;27073;51.128;4.220;2022-12-18T09:38:05;-0.10;59.00
41324;DHT22;27073;51.128;4.220;2022-12-18T09:40:36;-0.10;56.10
41324;DHT22;27073;51.128;4.220;2022-12-18T09:43:05;0.00;53.80
41324;DHT22;27073;51.128;4.220;2022-12-18T09:45:40;-0.30;47.10
41324;DHT22;27073;51.128;4.220;2022-12-18T09:48:10;-0.50;51.60
41324;DHT22;27073;51.128;4.220;2022-12-18T09:50:41;-0.30;56.90
41324;DHT22;27073;51.128;4.220;2022-12-18T09:53:14;-0.10;56.10
41324;DHT22;27073;51.128;4.220;2022-12-18T09:55:43;0.10;51.20
41324;DHT22;27073;51.128;4.220;2022-12-18T10:00:42;0.20;39.70
41324;DHT22;27073;51.128;4.220;2022-12-18T10:03:14;0.40;38.90
41324;DHT22;27073;51.128;4.220;2022-12-18T10:06:05;0.40;36.10
41324;DHT22;27073;51.128;4.220;2022-12-18T10:11:43;0.40;32.80
41324;DHT22;27073;51.128;4.220;2022-12-18T10:19:37;0.10;45.20
41324;DHT22;27073;51.128;4.220;2022-12-18T10:22:38;0.20;44.70
41324;DHT22;27073;51.128;4.220;2022-12-18T10:28:10;0.50;43.20
41324;DHT22;27073;51.128;4.220;2022-12-18T10:30:35;0.40;38.50
41324;DHT22;27073;51.128;4.220;2022-12-18T10:33:03;0.50;38.30
41324;DHT22;27073;51.128;4.220;2022-12-18T10:35:29;0.50;38.70
41324;DHT22;27073;51.128;4.220;2022-12-18T10:38:21;0.60;40.40
41324;DHT22;27073;51.128;4.220;2022-12-18T10:41:08;0.70;40.50
41324;DHT22;27073;51.128;4.220;2022-12-18T10:44:21;0.70;37.30
41324;DHT22;27073;51.128;4.220;2022-12-18T10:46:49;0.80;39.90
41324;DHT22;27073;51.128;4.220;2022-12-18T10:49:21;0.90;38.40
41324;DHT22;27073;51.128;4.220;2022-12-18T10:51:48;1.00;37.90
41324;DHT22;27073;51.128;4.220;2022-12-18T10:54:21;1.00;38.20
41324;DHT22;27073;51.128;4.220;2022-12-18T10:56:48;1.00;37.80
41324;DHT22;27073;51.128;4.220;2022-12-18T10:59:16;1.20;36.50
41324;DHT22;27073;51.128;4.220;2022-12-18T11:02:22;1.20;31.70
41324;DHT22;27073;51.128;4.220;2022-12-18T11:04:51;1.10;29.30
41324;DHT22;27073;51.128;4.220;2022-12-18T11:07:17;1.10;33.40
41324;DHT22;27073;51.128;4.220;2022-12-18T11:09:43;1.20;34.20
41324;DHT22;27073;51.128;4.220;2022-12-18T11:12:19;1.20;33.90
41324;DHT22;27073;51.128;4.220;2022-12-18T11:14:49;1.30;30.80
41324;DHT22;27073;51.128;4.220;2022-12-18T11:17:31;1.30;29.10
41324;DHT22;27073;51.128;4.220;2022-12-18T11:20:04;1.30;31.40
41324;DHT22;27073;51.128;4.220;2022-12-18T11:22:32;1.30;33.00
41324;DHT22;27073;51.128;4.220;2022-12-18T11:27:38;1.40;31.00
41324;DHT22;27073;51.128;4.220;2022-12-18T11:32:44;1.40;30.20
41324;DHT22;27073;51.128;4.220;2022-12-18T11:35:38;1.60;31.90
41324;DHT22;27073;51.128;4.220;2022-12-18T11:38:24;1.60;25.70
41324;DHT22;27073;51.128;4.220;2022-12-18T11:40:58;1.70;30.90
41324;DHT22;27073;51.128;4.220;2022-12-18T11:46:01;1.60;26.30
41324;DHT22;27073;51.128;4.220;2022-12-18T11:48:49;1.70;23.50
41324;DHT22;27073;51.128;4.220;2022-12-18T11:51:28;1.70;23.00
41324;DHT22;27073;51.128;4.220;2022-12-18T11:53:55;1.80;21.50
41324;DHT22;27073;51.128;4.220;2022-12-18T11:56:30;1.70;20.10
41324;DHT22;27073;51.128;4.220;2022-12-18T12:01:48;1.70;26.40
41324;DHT22;27073;51.128;4.220;2022-12-18T12:17:35;1.80;26.40
41324;DHT22;27073;51.128;4.220;2022-12-18T12:22:48;1.80;27.10
41324;DHT22;27073;51.128;4.220;2022-12-18T12:25:39;1.80;26.40
41324;DHT22;27073;51.128;4.220;2022-12-18T12:28:13;1.90;29.80
41324;DHT22;27073;51.128;4.220;2022-12-18T12:33:41;1.90;31.60
41324;DHT22;27073;51.128;4.220;2022-12-18T12:36:39;2.00;29.50
41324;DHT22;27073;51.128;4.220;2022-12-18T12:39:10;2.00;26.40
41324;DHT22;27073;51.128;4.220;2022-12-18T12:41:39;2.10;29.10
41324;DHT22;27073;51.128;4.220;2022-12-18T12:44:33;2.10;29.50
41324;DHT22;27073;51.128;4.220;2022-12-18T12:49:50;2.20;26.60
41324;DHT22;27073;51.128;4.220;2022-12-18T12:54:58;2.20;25.70
41324;DHT22;27073;51.128;4.220;2022-12-18T12:57:34;2.20;25.80
41324;DHT22;27073;51.128;4.220;2022-12-18T13:00:09;2.30;23.60
41324;DHT22;27073;51.128;4.220;2022-12-18T13:02:59;2.40;25.00
41324;DHT22;27073;51.128;4.220;2022-12-18T13:05:40;2.40;24.80
41324;DHT22;27073;51.128;4.220;2022-12-18T13:08:10;2.40;24.00
41324;DHT22;27073;51.128;4.220;2022-12-18T13:10:41;2.30;24.60
41324;DHT22;27073;51.128;4.220;2022-12-18T13:13:12;2.40;25.80
41324;DHT22;27073;51.128;4.220;2022-12-18T13:15:43;2.40;25.50
41324;DHT22;27073;51.128;4.220;2022-12-18T13:18:14;2.50;23.20
41324;DHT22;27073;51.128;4.220;2022-12-18T13:20:41;2.50;20.00
41324;DHT22;27073;51.128;4.220;2022-12-18T13:25:49;2.30;27.60
41324;DHT22;27073;51.128;4.220;2022-12-18T13:31:01;2.40;31.00
41324;DHT22;27073;51.128;4.220;2022-12-18T13:36:28;2.60;28.60
41324;DHT22;27073;51.128;4.220;2022-12-18T13:39:20;2.70;22.40
41324;DHT22;27073;51.128;4.220;2022-12-18T13:41:52;2.50;21.60
41324;DHT22;27073;51.128;4.220;2022-12-18T13:44:35;2.30;26.90
41324;DHT22;27073;51.128;4.220;2022-12-18T13:47:03;2.20;32.50
41324;DHT22;27073;51.128;4.220;2022-12-18T13:49:43;2.30;36.20
41324;DHT22;27073;51.128;4.220;2022-12-18T13:52:21;2.10;40.40
41324;DHT22;27073;51.128;4.220;2022-12-18T13:54:51;2.00;47.50
41324;DHT22;27073;51.128;4.220;2022-12-18T13:57:38;1.90;49.20
41324;DHT22;27073;51.128;4.220;2022-12-18T14:00:33;1.90;55.80
41324;DHT22;27073;51.128;4.220;2022-12-18T14:02:59;1.90;56.50
41324;DHT22;27073;51.128;4.220;2022-12-18T14:05:28;2.10;58.80
41324;DHT22;27073;51.128;4.220;2022-12-18T14:08:01;2.10;53.90
41324;DHT22;27073;51.128;4.220;2022-12-18T14:10:31;2.20;53.70
41324;DHT22;27073;51.128;4.220;2022-12-18T14:13:05;2.30;50.70
41324;DHT22;27073;51.128;4.220;2022-12-18T14:15:42;2.30;48.80
41324;DHT22;27073;51.128;4.220;2022-12-18T14:20:43;2.20;51.20
41324;DHT22;27073;51.128;4.220;2022-12-18T14:23:35;2.30;50.20
41324;DHT22;27073;51.128;4.220;2022-12-18T14:26:03;2.40;44.80
41324;DHT22;27073;51.128;4.220;2022-12-18T14:28:44;2.30;42.60
41324;DHT22;27073;51.128;4.220;2022-12-18T14:31:24;2.50;45.30
41324;DHT22;27073;51.128;4.220;2022-12-18T14:33:51;2.50;43.50
41324;DHT22;27073;51.128;4.220;2022-12-18T14:36:20;2.30;50.70
41324;DHT22;27073;51.128;4.220;2022-12-18T14:38:54;2.10;49.90
41324;DHT22;27073;51.128;4.220;2022-12-18T14:41:22;2.20;52.80
41324;DHT22;27073;51.128;4.220;2022-12-18T14:43:50;2.20;52.50
41324;DHT22;27073;51.128;4.220;2022-12-18T14:46:35;2.10;47.00
41324;DHT22;27073;51.128;4.220;2022-12-18T14:51:33;2.10;53.60
41324;DHT22;27073;51.128;4.220;2022-12-18T14:54:02;2.00;53.20
41324;DHT22;27073;51.128;4.220;2022-12-18T14:56:31;2.20;53.00
41324;DHT22;27073;51.128;4.220;2022-12-18T14:59:02;2.10;53.50
41324;DHT22;27073;51.128;4.220;2022-12-18T15:01:39;1.90;49.60
41324;DHT22;27073;51.128;4.220;2022-12-18T15:09:33;1.80;59.70
41324;DHT22;27073;51.128;4.220;2022-12-18T15:12:00;1.70;56.50
41324;DHT22;27073;51.128;4.220;2022-12-18T15:14:40;1.70;59.90
41324;DHT22;27073;51.128;4.220;2022-12-18T15:17:16;1.60;64.40
41324;DHT22;27073;51.128;4.220;2022-12-18T15:19:44;1.70;61.00
41324;DHT22;27073;51.128;4.220;2022-12-18T15:24:45;1.70;63.20
41324;DHT22;27073;51.128;4.220;2022-12-18T15:27:33;1.70;59.70
41324;DHT22;27073;51.128;4.220;2022-12-18T15:32:33;1.50;64.00
41324;DHT22;27073;51.128;4.220;2022-12-18T15:35:16;1.60;63.00
41324;DHT22;27073;51.128;4.220;2022-12-18T15:37:42;1.50;59.30
41324;DHT22;27073;51.128;4.220;2022-12-18T15:40:19;1.50;55.30
41324;DHT22;27073;51.128;4.220;2022-12-18T15:42:46;1.70;58.90
41324;DHT22;27073;51.128;4.220;2022-12-18T15:45:30;1.90;52.30
41324;DHT22;27073;51.128;4.220;2022-12-18T15:47:56;2.00;45.90
41324;DHT22;27073;51.128;4.220;2022-12-18T15:50:22;2.20;43.70
41324;DHT22;27073;51.128;4.220;2022-12-18T15:52:50;2.40;37.60
41324;DHT22;27073;51.128;4.220;2022-12-18T15:55:19;2.50;32.20
41324;DHT22;27073;51.128;4.220;2022-12-18T15:58:07;2.30;25.90
41324;DHT22;27073;51.128;4.220;2022-12-18T16:00:35;2.20;30.90
41324;DHT22;27073;51.128;4.220;2022-12-18T16:03:02;2.10;32.60
41324;DHT22;27073;51.128;4.220;2022-12-18T16:05:28;2.20;33.70
41324;DHT22;27073;51.128;4.220;2022-12-18T16:07:54;2.20;29.90
41324;DHT22;27073;51.128;4.220;2022-12-18T16:10:20;2.30;29.20
41324;DHT22;27073;51.128;4.220;2022-12-18T16:12:46;2.40;26.80
41324;DHT22;27073;51.128;4.220;2022-12-18T16:15:14;2.50;26.60
41324;DHT22;27073;51.128;4.220;2022-12-18T16:17:44;2.40;24.50
41324;DHT22;27073;51.128;4.220;2022-12-18T16:20:14;2.30;22.90
41324;DHT22;27073;51.128;4.220;2022-12-18T16:22:41;2.10;33.00
41324;DHT22;27073;51.128;4.220;2022-12-18T16:25:17;2.00;36.50
41324;DHT22;27073;51.128;4.220;2022-12-18T16:27:43;2.10;36.40
41324;DHT22;27073;51.128;4.220;2022-12-18T16:30:13;2.00;33.10
41324;DHT22;27073;51.128;4.220;2022-12-18T16:32:39;2.00;30.90
41324;DHT22;27073;51.128;4.220;2022-12-18T16:35:05;2.20;28.90
41324;DHT22;27073;51.128;4.220;2022-12-18T16:37:31;2.30;27.50
41324;DHT22;27073;51.128;4.220;2022-12-18T16:39:56;2.30;24.70
41324;DHT22;27073;51.128;4.220;2022-12-18T16:42:22;2.40;21.70
41324;DHT22;27073;51.128;4.220;2022-12-18T16:44:49;2.30;23.70
41324;DHT22;27073;51.128;4.220;2022-12-18T16:47:15;2.30;28.40
41324;DHT22;27073;51.128;4.220;2022-12-18T16:49:41;2.40;29.30
41324;DHT22;27073;51.128;4.220;2022-12-18T16:52:07;2.60;24.50
41324;DHT22;27073;51.128;4.220;2022-12-18T16:54:33;2.60;18.50
41324;DHT22;27073;51.128;4.220;2022-12-18T16:57:01;2.30;24.10
41324;DHT22;27073;51.128;4.220;2022-12-18T16:59:27;2.30;24.20
41324;DHT22;27073;51.128;4.220;2022-12-18T17:01:53;2.30;24.90
41324;DHT22;27073;51.128;4.220;2022-12-18T17:04:20;2.10;19.70
41324;DHT22;27073;51.128;4.220;2022-12-18T17:06:46;2.10;26.20
41324;DHT22;27073;51.128;4.220;2022-12-18T17:09:17;2.30;27.40
41324;DHT22;27073;51.128;4.220;2022-12-18T17:11:48;2.40;22.40
41324;DHT22;27073;51.128;4.220;2022-12-18T17:14:16;2.40;19.70
41324;DHT22;27073;51.128;4.220;2022-12-18T17:16:42;2.50;16.60
41324;DHT22;27073;51.128;4.220;2022-12-18T17:19:09;2.40;10.60
41324;DHT22;27073;51.128;4.220;2022-12-18T17:21:35;2.40;17.90
41324;DHT22;27073;51.128;4.220;2022-12-18T17:24:01;2.40;22.70
41324;DHT22;27073;51.128;4.220;2022-12-18T17:26:27;2.40;20.80